createdAt,value
2023-02-28T00:01:13.804Z,111.23
2023-02-28T00:03:52.810Z,111.87
2023-02-28T00:06:29.662Z,123.50
2023-02-28T00:09:07.161Z,114.77
2023-02-28T00:11:47.996Z,113.03
2023-02-28T00:14:30.538Z,112.67
2023-02-28T00:17:10.186Z,118.67
2023-02-28T00:19:48.262Z,115.07
2023-02-28T00:22:26.593Z,117.07
2023-02-28T00:25:02.882Z,121.00
2023-02-28T00:27:42.202Z,114.57
2023-02-28T00:30:20.761Z,105.73
2023-02-28T00:32:56.878Z,110.23
2023-02-28T00:35:33.279Z,111.03
2023-02-28T00:38:12.481Z,112.27
2023-02-28T00:40:49.430Z,109.90
2023-02-28T00:43:31.029Z,123.93
2023-02-28T00:46:13.382Z,113.87
2023-02-28T00:48:51.173Z,111.17
2023-02-28T00:51:28.040Z,111.37
2023-02-28T00:54:06.267Z,106.97
2023-02-28T00:56:42.435Z,114.33
2023-02-28T00:59:23.810Z,117.30
2023-02-28T01:01:59.928Z,113.57
2023-02-28T01:04:36.550Z,111.37
2023-02-28T01:07:17.513Z,115.40
2023-02-28T01:09:56.370Z,117.00
2023-02-28T01:12:34.189Z,124.70
2023-02-28T01:15:18.105Z,121.43
2023-02-28T01:17:57.582Z,124.43
2023-02-28T01:20:34.693Z,120.67
2023-02-28T01:23:11.032Z,142.03
2023-02-28T01:25:47.750Z,127.50
2023-02-28T01:28:24.065Z,122.70
2023-02-28T01:31:11.696Z,136.33
2023-02-28T01:33:48.576Z,122.67
2023-02-28T01:36:28.084Z,115.77
2023-02-28T01:39:06.242Z,118.07
2023-02-28T01:41:42.771Z,120.47
2023-02-28T01:44:49.256Z,129.07
2023-02-28T01:47:28.999Z,134.63
2023-02-28T01:50:08.651Z,124.10
2023-02-28T01:52:45.829Z,127.03
2023-02-28T01:55:25.469Z,148.77
2023-02-28T01:58:04.745Z,134.13
2023-02-28T02:00:45.031Z,128.67
2023-02-28T02:03:26.101Z,130.23
2023-02-28T02:06:02.193Z,135.53
2023-02-28T02:08:41.489Z,129.80
2023-02-28T02:11:32.155Z,132.40
2023-02-28T02:14:31.013Z,143.70
2023-02-28T02:17:27.270Z,128.27
2023-02-28T02:20:44.396Z,133.43
2023-02-28T02:23:54.606Z,139.87
2023-02-28T02:26:59.802Z,127.60
2023-02-28T02:30:05.735Z,130.63
2023-02-28T02:33:26.014Z,137.03
2023-02-28T02:36:12.384Z,137.27
2023-02-28T02:38:56.000Z,136.93
2023-02-28T02:41:40.665Z,127.07
2023-02-28T02:44:25.532Z,137.13
2023-02-28T02:47:06.033Z,126.67
2023-02-28T02:49:47.122Z,137.87
2023-02-28T02:52:30.003Z,143.23
2023-02-28T02:55:10.101Z,137.40
2023-02-28T02:57:52.310Z,134.13
2023-02-28T03:00:44.217Z,139.23
2023-02-28T03:03:31.758Z,155.20
2023-02-28T03:06:12.863Z,138.47
2023-02-28T03:08:56.105Z,140.47
2023-02-28T03:11:34.518Z,137.37
2023-02-28T03:14:21.445Z,136.07
2023-02-28T03:17:34.481Z,136.97
2023-02-28T03:20:21.831Z,149.27
2023-02-28T03:23:16.087Z,141.73
2023-02-28T03:26:02.845Z,144.50
2023-02-28T03:28:49.389Z,139.40
2023-02-28T03:31:35.750Z,146.37
2023-02-28T03:34:18.025Z,151.73
2023-02-28T03:37:02.180Z,135.90
2023-02-28T03:39:43.763Z,139.77
2023-02-28T03:42:25.565Z,140.83
2023-02-28T03:45:06.223Z,142.30
2023-02-28T03:47:46.846Z,144.37
2023-02-28T03:50:27.955Z,150.30
2023-02-28T03:53:09.836Z,148.13
2023-02-28T03:56:00.817Z,144.87
2023-02-28T03:58:51.662Z,154.70
2023-02-28T04:01:33.447Z,151.53
2023-02-28T04:04:12.123Z,152.97
2023-02-28T04:07:06.800Z,159.83
2023-02-28T04:09:45.261Z,146.07
2023-02-28T04:12:23.863Z,149.17
2023-02-28T04:15:05.813Z,158.30
2023-02-28T04:17:42.374Z,143.13
2023-02-28T04:20:22.240Z,131.57
2023-02-28T04:23:00.913Z,125.23
2023-02-28T04:25:43.115Z,123.07
2023-02-28T04:28:20.028Z,114.00
2023-02-28T04:31:09.109Z,122.30
2023-02-28T04:33:45.592Z,131.70
2023-02-28T04:36:23.433Z,123.87
2023-02-28T04:39:01.872Z,114.13
2023-02-28T04:41:40.153Z,117.80
2023-02-28T04:44:19.994Z,121.40
2023-02-28T04:47:04.997Z,123.13
2023-02-28T04:49:44.844Z,120.53
2023-02-28T04:52:20.980Z,130.87
2023-02-28T04:55:02.488Z,120.57
2023-02-28T04:57:40.105Z,121.47
2023-02-28T05:00:19.244Z,108.97
2023-02-28T05:03:04.679Z,132.60
2023-02-28T05:05:42.689Z,119.57
2023-02-28T05:08:26.045Z,125.67
2023-02-28T05:11:04.241Z,107.70
2023-02-28T05:13:49.662Z,117.83
2023-02-28T05:16:26.939Z,112.40
2023-02-28T05:19:06.189Z,108.90
2023-02-28T05:21:44.509Z,107.30
2023-02-28T05:24:25.317Z,115.97
2023-02-28T05:27:03.946Z,102.53
2023-02-28T05:29:45.965Z,108.00
2023-02-28T05:32:24.719Z,116.80
2023-02-28T05:35:06.399Z,110.73
2023-02-28T05:37:43.122Z,117.50
2023-02-28T05:40:19.514Z,120.40
2023-02-28T05:42:57.140Z,98.43
2023-02-28T05:45:35.204Z,108.87
2023-02-28T05:48:17.636Z,109.33
2023-02-28T05:50:59.438Z,102.63
2023-02-28T05:53:42.389Z,106.80
2023-02-28T05:56:19.909Z,107.77
2023-02-28T05:58:58.779Z,109.53
2023-02-28T06:01:50.343Z,105.77
2023-02-28T06:04:32.019Z,111.47
2023-02-28T06:07:24.973Z,112.00
2023-02-28T06:10:02.572Z,109.13
2023-02-28T06:12:39.532Z,99.73
2023-02-28T06:15:19.530Z,101.23
2023-02-28T06:17:59.337Z,110.23
2023-02-28T06:20:36.983Z,102.83
2023-02-28T06:23:18.804Z,113.13
2023-02-28T06:25:55.712Z,95.73
2023-02-28T06:28:35.313Z,100.50
2023-02-28T06:31:24.911Z,105.83
2023-02-28T06:34:06.554Z,106.20
2023-02-28T06:36:43.582Z,104.73
2023-02-28T06:39:28.348Z,103.50
2023-02-28T06:42:04.807Z,104.33
2023-02-28T06:44:41.418Z,101.10
2023-02-28T06:47:18.344Z,98.57
2023-02-28T06:49:55.448Z,106.67
2023-02-28T06:52:33.528Z,113.43
2023-02-28T06:55:14.408Z,102.97
2023-02-28T06:57:54.290Z,102.00
2023-02-28T07:00:31.402Z,104.53
2023-02-28T07:03:08.003Z,101.60
2023-02-28T07:05:46.249Z,91.80
2023-02-28T07:08:23.013Z,90.50
2023-02-28T07:11:05.389Z,97.03
2023-02-28T07:13:50.341Z,95.10
2023-02-28T07:16:31.995Z,101.43
2023-02-28T07:19:10.923Z,102.63
2023-02-28T07:21:48.250Z,99.10
2023-02-28T07:24:30.741Z,96.77
2023-02-28T07:27:13.643Z,94.90
2023-02-28T07:29:59.966Z,99.00
2023-02-28T07:32:40.306Z,102.10
2023-02-28T07:35:17.959Z,98.07
2023-02-28T07:37:54.827Z,104.10
2023-02-28T07:40:32.653Z,98.33
2023-02-28T07:43:14.209Z,102.40
2023-02-28T07:45:59.769Z,103.13
2023-02-28T07:48:38.885Z,103.10
2023-02-28T07:51:18.720Z,98.17
2023-02-28T07:53:57.218Z,91.23
2023-02-28T07:56:35.616Z,100.67
2023-02-28T07:59:14.808Z,95.03
2023-02-28T08:01:53.068Z,87.23
2023-02-28T08:04:35.808Z,105.13
2023-02-28T08:07:16.067Z,107.63
2023-02-28T08:09:55.949Z,108.77
2023-02-28T08:12:37.920Z,111.13
2023-02-28T08:15:17.191Z,99.80
2023-02-28T08:17:56.377Z,100.63
2023-02-28T08:20:39.433Z,105.80
2023-02-28T08:23:17.883Z,108.53
2023-02-28T08:26:02.803Z,105.53
2023-02-28T08:28:42.385Z,96.50
2023-02-28T08:31:23.370Z,92.63
2023-02-28T08:34:03.201Z,100.33
2023-02-28T08:36:40.938Z,91.80
2023-02-28T08:39:17.788Z,96.93
2023-02-28T08:42:06.924Z,86.53
2023-02-28T08:44:44.039Z,93.13
2023-02-28T08:47:22.910Z,95.73
2023-02-28T08:50:00.036Z,96.67
2023-02-28T08:52:36.361Z,93.80
2023-02-28T08:55:15.531Z,92.50
2023-02-28T08:57:55.397Z,95.20
2023-02-28T09:00:35.404Z,89.20
2023-02-28T09:03:19.979Z,96.77
2023-02-28T09:06:04.385Z,103.57
2023-02-28T09:08:44.378Z,88.77
2023-02-28T09:11:21.777Z,87.23
2023-02-28T09:14:03.989Z,94.83
2023-02-28T09:16:44.473Z,88.33
2023-02-28T09:19:34.539Z,102.13
2023-02-28T09:22:15.616Z,82.50
2023-02-28T09:24:53.002Z,87.83
2023-02-28T09:27:29.702Z,104.57
2023-02-28T09:30:08.591Z,96.53
2023-02-28T09:32:55.102Z,106.80
2023-02-28T09:35:39.832Z,89.20
2023-02-28T09:38:22.451Z,88.70
2023-02-28T09:41:05.106Z,93.20
2023-02-28T09:43:48.116Z,93.73
2023-02-28T09:46:37.681Z,96.87
2023-02-28T09:49:18.618Z,94.17
2023-02-28T09:52:02.447Z,102.63
2023-02-28T09:54:41.690Z,101.20
2023-02-28T09:57:27.768Z,98.73
2023-02-28T10:00:18.156Z,93.70
2023-02-28T10:03:31.676Z,95.00
2023-02-28T10:06:16.907Z,111.67
2023-02-28T10:09:03.877Z,97.90
2023-02-28T10:11:49.103Z,109.80
2023-02-28T10:14:28.778Z,96.20
2023-02-28T10:17:09.220Z,93.87
2023-02-28T10:19:55.413Z,102.53
2023-02-28T10:22:36.660Z,101.37
2023-02-28T10:25:25.929Z,106.07
2023-02-28T10:28:15.541Z,103.37
2023-02-28T10:30:55.838Z,103.63
2023-02-28T10:33:45.668Z,116.77
2023-02-28T10:36:24.329Z,111.07
2023-02-28T10:39:02.850Z,101.23
2023-02-28T10:41:48.329Z,106.93
2023-02-28T10:44:29.315Z,106.03
2023-02-28T10:47:08.324Z,98.20
2023-02-28T10:49:52.791Z,110.17
2023-02-28T10:52:45.312Z,107.53
2023-02-28T10:55:36.055Z,121.50
2023-02-28T10:58:29.769Z,105.17
2023-02-28T11:01:17.546Z,111.03
2023-02-28T11:03:54.848Z,105.57
2023-02-28T11:06:35.500Z,108.37
2023-02-28T11:09:24.061Z,110.40
2023-02-28T11:12:02.348Z,108.30
2023-02-28T11:14:57.630Z,111.10
2023-02-28T11:17:42.637Z,108.40
2023-02-28T11:20:31.598Z,112.10
2023-02-28T11:23:23.651Z,111.97
2023-02-28T11:26:12.393Z,117.20
2023-02-28T11:28:49.787Z,106.80
2023-02-28T11:31:34.669Z,113.23
2023-02-28T11:34:35.899Z,112.53
2023-02-28T11:37:19.528Z,118.97
2023-02-28T11:40:00.214Z,106.87
2023-02-28T11:42:54.074Z,130.03
2023-02-28T11:45:49.806Z,122.63
2023-02-28T11:48:44.009Z,114.27
2023-02-28T11:51:43.316Z,110.10
2023-02-28T11:54:44.235Z,112.00
2023-02-28T11:57:35.526Z,112.10
2023-02-28T12:00:26.261Z,119.97
2023-02-28T12:03:18.283Z,107.00
2023-02-28T12:06:25.633Z,108.27
2023-02-28T12:09:20.878Z,113.87
2023-02-28T12:12:13.586Z,116.43
2023-02-28T12:15:28.051Z,106.70
2023-02-28T12:18:28.892Z,113.57
2023-02-28T12:21:22.296Z,117.10
2023-02-28T12:24:30.942Z,131.13
2023-02-28T12:27:11.822Z,119.37
2023-02-28T12:30:04.351Z,112.57
2023-02-28T12:32:45.214Z,108.00
2023-02-28T12:35:30.916Z,120.23
2023-02-28T12:38:15.193Z,119.47
2023-02-28T12:40:56.731Z,122.13
2023-02-28T12:43:39.589Z,110.03
2023-02-28T12:46:24.718Z,113.67
2023-02-28T12:49:05.023Z,112.57
2023-02-28T12:51:55.907Z,109.47
2023-02-28T12:54:42.011Z,111.80
2023-02-28T12:57:27.767Z,126.10
2023-02-28T13:00:10.364Z,126.20
2023-02-28T13:03:32.608Z,118.10
2023-02-28T13:06:42.842Z,111.00
2023-02-28T13:09:24.337Z,132.77
2023-02-28T13:12:20.386Z,115.43
2023-02-28T13:15:08.725Z,119.43
2023-02-28T13:17:51.744Z,124.50
2023-02-28T13:20:40.000Z,121.67
2023-02-28T13:23:49.805Z,124.23
2023-02-28T13:26:30.758Z,132.33
2023-02-28T13:29:10.727Z,123.60
2023-02-28T13:32:21.162Z,123.57
2023-02-28T13:35:59.094Z,123.37
2023-02-28T13:39:04.043Z,128.30
2023-02-28T13:42:00.747Z,123.77
2023-02-28T13:45:28.864Z,119.53
2023-02-28T13:48:10.378Z,132.53
2023-02-28T13:50:51.465Z,129.90
2023-02-28T13:53:56.750Z,127.57
2023-02-28T13:56:44.867Z,132.33
2023-02-28T13:59:37.210Z,129.80
2023-02-28T14:02:42.675Z,136.13
2023-02-28T14:05:22.023Z,132.73
2023-02-28T14:07:58.438Z,138.43
2023-02-28T14:10:35.292Z,137.60
2023-02-28T14:13:18.294Z,148.17
2023-02-28T14:16:04.491Z,136.20
2023-02-28T14:18:49.067Z,151.03
2023-02-28T14:21:31.830Z,141.57
2023-02-28T14:24:53.743Z,139.60
2023-02-28T14:27:50.837Z,147.87
2023-02-28T14:31:08.678Z,155.00
2023-02-28T14:34:11.740Z,163.00
2023-02-28T14:36:56.485Z,142.57
2023-02-28T14:39:36.413Z,148.23
2023-02-28T14:42:43.435Z,157.53
2023-02-28T14:45:34.099Z,144.73
2023-02-28T14:48:17.900Z,146.50
2023-02-28T14:51:08.375Z,142.07
2023-02-28T14:53:46.254Z,134.27
2023-02-28T14:56:32.523Z,138.17
2023-02-28T14:59:32.819Z,137.03
2023-02-28T15:02:43.830Z,150.87
2023-02-28T15:05:36.554Z,162.87
2023-02-28T15:08:27.678Z,151.33
2023-02-28T15:11:10.330Z,142.73
2023-02-28T15:13:52.841Z,145.07
2023-02-28T15:16:39.897Z,153.57
2023-02-28T15:19:27.026Z,144.33
2023-02-28T15:22:19.575Z,151.13
2023-02-28T15:25:08.353Z,152.47
2023-02-28T15:27:50.468Z,151.57
2023-02-28T15:30:32.242Z,158.30
2023-02-28T15:33:31.490Z,155.90
2023-02-28T15:36:23.729Z,160.63
2023-02-28T15:39:15.898Z,164.03
2023-02-28T15:41:58.813Z,168.93
2023-02-28T15:44:48.142Z,168.80
2023-02-28T15:47:38.892Z,162.50
2023-02-28T15:50:23.436Z,162.47
2023-02-28T15:53:01.624Z,163.87
2023-02-28T15:55:41.108Z,163.30
2023-02-28T15:58:27.030Z,172.30
2023-02-28T16:01:34.832Z,157.13
2023-02-28T16:04:32.403Z,168.40
2023-02-28T16:07:22.587Z,174.57
2023-02-28T16:10:00.651Z,174.37
2023-02-28T16:12:39.539Z,157.67
2023-02-28T16:15:29.305Z,175.73
2023-02-28T16:18:12.947Z,170.90
2023-02-28T16:20:51.297Z,169.23
2023-02-28T16:23:35.703Z,170.53
2023-02-28T16:26:19.382Z,171.53
2023-02-28T16:29:01.084Z,177.13
2023-02-28T16:31:57.781Z,173.70
2023-02-28T16:34:36.485Z,169.83
2023-02-28T16:37:25.247Z,162.80
2023-02-28T16:40:03.396Z,167.30
2023-02-28T16:42:39.992Z,173.90
2023-02-28T16:45:26.774Z,176.30
2023-02-28T16:48:08.727Z,177.90
2023-02-28T16:50:47.172Z,172.30
2023-02-28T16:53:28.748Z,177.63
2023-02-28T16:56:11.222Z,183.27
2023-02-28T16:58:51.711Z,166.47
2023-02-28T17:01:35.602Z,176.90
2023-02-28T17:04:23.876Z,178.33
2023-02-28T17:07:01.421Z,180.73
2023-02-28T17:09:43.466Z,164.23
2023-02-28T17:12:21.251Z,182.87
2023-02-28T17:14:57.637Z,167.47
2023-02-28T17:17:34.783Z,166.83
2023-02-28T17:20:17.338Z,166.87
2023-02-28T17:22:53.903Z,179.67
2023-02-28T17:25:36.682Z,177.17
2023-02-28T17:28:14.570Z,167.50
2023-02-28T17:30:50.899Z,167.37
2023-02-28T17:33:31.320Z,175.07
2023-02-28T17:36:10.236Z,169.57
2023-02-28T17:38:48.158Z,174.17
2023-02-28T17:41:24.365Z,174.50
2023-02-28T17:44:00.765Z,170.90
2023-02-28T17:46:36.800Z,178.63
2023-02-28T17:49:12.395Z,176.00
2023-02-28T17:51:52.903Z,169.30
2023-02-28T17:54:28.674Z,163.70
2023-02-28T17:57:04.339Z,157.97
2023-02-28T17:59:40.579Z,142.07
2023-02-28T18:02:27.413Z,150.23
2023-02-28T18:05:05.886Z,142.60
2023-02-28T18:07:44.834Z,133.03
2023-02-28T18:10:24.314Z,140.40
2023-02-28T18:12:59.980Z,129.27
2023-02-28T18:15:35.952Z,127.80
2023-02-28T18:18:14.456Z,121.80
2023-02-28T18:20:52.992Z,120.70
2023-02-28T18:23:31.064Z,135.37
2023-02-28T18:26:07.204Z,130.93
2023-02-28T18:28:44.203Z,131.53
2023-02-28T18:31:22.440Z,143.43
2023-02-28T18:34:00.470Z,141.50
2023-02-28T18:36:36.671Z,133.87
2023-02-28T18:39:14.612Z,145.63
2023-02-28T18:41:51.071Z,136.27
2023-02-28T18:44:27.329Z,136.60
2023-02-28T18:47:03.403Z,138.87
2023-02-28T18:49:49.205Z,141.53
2023-02-28T18:52:25.356Z,135.03
2023-02-28T18:55:03.275Z,133.57
2023-02-28T18:57:40.620Z,140.30
2023-02-28T19:00:17.490Z,137.73
2023-02-28T19:02:53.094Z,127.13
2023-02-28T19:05:29.415Z,139.80
2023-02-28T19:08:04.827Z,146.90
2023-02-28T19:10:45.358Z,134.60
2023-02-28T19:13:22.151Z,134.83
2023-02-28T19:16:06.374Z,135.30
2023-02-28T19:18:42.977Z,126.93
2023-02-28T19:21:19.137Z,133.03
2023-02-28T19:23:54.177Z,128.40
2023-02-28T19:26:32.831Z,132.73
2023-02-28T19:29:09.695Z,136.57
2023-02-28T19:31:46.660Z,128.77
2023-02-28T19:34:22.225Z,125.43
2023-02-28T19:36:56.690Z,127.13
2023-02-28T19:39:31.795Z,124.60
2023-02-28T19:42:09.330Z,141.80
2023-02-28T19:44:43.752Z,133.60
2023-02-28T19:47:18.425Z,128.37
2023-02-28T19:49:56.077Z,128.20
2023-02-28T19:52:31.907Z,125.90
2023-02-28T19:55:07.011Z,108.13
2023-02-28T19:57:44.139Z,113.43
2023-02-28T20:00:22.290Z,118.73
2023-02-28T20:02:57.079Z,97.57
2023-02-28T20:05:32.261Z,105.07
2023-02-28T20:08:06.558Z,109.70
2023-02-28T20:10:41.278Z,103.20
2023-02-28T20:13:18.650Z,106.27
2023-02-28T20:15:52.770Z,122.70
2023-02-28T20:18:26.658Z,131.80
2023-02-28T20:21:01.007Z,123.03
2023-02-28T20:23:34.973Z,127.50
2023-02-28T20:26:09.089Z,127.60
2023-02-28T20:28:46.160Z,101.10
2023-02-28T20:31:21.956Z,102.97
2023-02-28T20:33:56.478Z,102.97
2023-02-28T20:36:31.031Z,99.23
2023-02-28T20:39:07.461Z,95.53
2023-02-28T20:41:41.692Z,94.07
2023-02-28T20:44:19.234Z,84.63
2023-02-28T20:46:53.306Z,101.37
2023-02-28T20:49:28.206Z,96.63
2023-02-28T20:52:02.381Z,89.53
2023-02-28T20:54:37.285Z,98.90
2023-02-28T20:57:11.942Z,96.03
2023-02-28T20:59:48.358Z,94.03
2023-02-28T21:02:23.901Z,90.90
2023-02-28T21:04:57.609Z,104.20
2023-02-28T21:07:32.503Z,84.73
2023-02-28T21:10:09.349Z,99.83
2023-02-28T21:12:44.894Z,92.83
2023-02-28T21:15:21.568Z,94.33
2023-02-28T21:17:56.127Z,91.13
2023-02-28T21:20:29.652Z,95.53
2023-02-28T21:23:04.226Z,98.20
2023-02-28T21:25:38.882Z,101.07
2023-02-28T21:28:13.304Z,103.30
2023-02-28T21:30:49.717Z,94.90
2023-02-28T21:33:23.706Z,100.90
2023-02-28T21:36:03.763Z,100.90
2023-02-28T21:38:38.586Z,100.77
2023-02-28T21:41:14.953Z,97.77
2023-02-28T21:43:50.006Z,102.87
2023-02-28T21:46:28.260Z,90.53
2023-02-28T21:49:03.320Z,103.90
2023-02-28T21:51:38.459Z,103.77
2023-02-28T21:54:13.816Z,99.00
2023-02-28T21:56:49.117Z,91.67
2023-02-28T21:59:23.174Z,98.07
2023-02-28T22:01:59.631Z,105.27
2023-02-28T22:04:36.174Z,98.73
2023-02-28T22:07:11.359Z,92.90
2023-02-28T22:09:46.504Z,90.93
2023-02-28T22:12:21.832Z,108.60
2023-02-28T22:14:56.832Z,100.40
2023-02-28T22:17:33.021Z,87.37
2023-02-28T22:20:07.364Z,86.20
2023-02-28T22:22:41.005Z,90.03
2023-02-28T22:25:16.322Z,87.87
2023-02-28T22:27:51.246Z,81.47
2023-02-28T22:30:25.710Z,92.07
2023-02-28T22:33:03.349Z,95.70
2023-02-28T22:35:38.302Z,85.23
2023-02-28T22:38:13.567Z,71.47
2023-02-28T22:40:48.470Z,69.70
2023-02-28T22:43:23.636Z,76.30
2023-02-28T22:45:57.523Z,84.23
2023-02-28T22:48:34.476Z,77.20
2023-02-28T22:51:12.492Z,88.40
2023-02-28T22:53:49.584Z,76.53
2023-02-28T22:56:28.807Z,75.40
2023-02-28T22:59:06.178Z,74.77
2023-02-28T23:01:42.148Z,71.73
2023-02-28T23:04:20.397Z,67.47
2023-02-28T23:06:56.043Z,66.63
2023-02-28T23:09:32.396Z,67.50
2023-02-28T23:12:08.287Z,67.07
2023-02-28T23:14:46.738Z,68.00
2023-02-28T23:17:22.056Z,57.20
2023-02-28T23:19:59.781Z,68.17
2023-02-28T23:22:36.794Z,67.73
2023-02-28T23:25:14.803Z,67.47
2023-02-28T23:27:51.079Z,71.03
2023-02-28T23:30:27.218Z,58.73
2023-02-28T23:33:03.176Z,68.43
2023-02-28T23:35:43.513Z,72.20
2023-02-28T23:38:19.188Z,74.33
2023-02-28T23:40:55.439Z,68.73
2023-02-28T23:43:32.710Z,68.53
2023-02-28T23:46:09.914Z,81.20
2023-02-28T23:48:46.605Z,64.77
2023-02-28T23:51:26.205Z,70.80
2023-02-28T23:54:05.714Z,66.83
2023-02-28T23:56:44.045Z,69.33
2023-02-28T23:59:21.477Z,63.03
